Time;durP1;ratioP1;P1;durP2;ratioP2;P2;SDS_P1;SDS_P2;PMS_P1;PMS_P2;Temp;Humidity;BMP_temperature;BMP_pressure;BME280_temperature;BME280_humidity;BME280_pressure;Samples;Min_cycle;Max_cycle;Signal;HPM_P1;HPM_P2
2021/06/03 00:03:41;;;;;;;6.00;5.40;;;;;;;17.00;76.13;98692.25;3806320;77;43735;-23
2021/06/03 00:08:47;;;;;;;5.95;5.33;;;;;;;16.87;77.51;98694.31;3807549;77;44079;-23
2021/06/03 00:13:53;;;;;;;9.05;5.20;;;;;;;16.82;77.57;98688.09;3793412;76;42745;-23
2021/06/03 00:19:00;;;;;;;7.85;4.90;;;;;;;16.65;80.54;98691.60;3813218;76;43397;-23
2021/06/03 00:24:07;;;;;;;7.35;5.30;;;;;;;16.52;81.08;98690.96;3800417;76;44094;-24
2021/06/03 00:29:14;;;;;;;6.03;5.33;;;;;;;16.45;82.38;98682.73;3804399;77;44441;-24
2021/06/03 00:34:22;;;;;;;7.08;5.12;;;;;;;16.46;81.57;98684.92;3803823;77;44039;-24
2021/06/03 00:39:28;;;;;;;6.58;5.30;;;;;;;16.48;80.48;98677.41;3799523;77;43350;-24
2021/06/03 00:44:35;;;;;;;8.88;5.65;;;;;;;16.43;80.88;98675.78;3798417;77;44290;-24
2021/06/03 00:49:41;;;;;;;8.80;5.72;;;;;;;16.36;81.21;98674.87;3781508;77;43227;-23
2021/06/03 00:54:47;;;;;;;6.20;5.28;;;;;;;16.31;81.88;98677.64;3814959;77;43685;-25
2021/06/03 00:59:54;;;;;;;7.20;5.50;;;;;;;16.28;81.43;98671.25;3812310;77;43685;-23
2021/06/03 01:05:01;;;;;;;6.08;5.33;;;;;;;16.25;81.12;98668.91;3810782;77;44111;-23
2021/06/03 01:10:11;;;;;;;7.60;5.28;;;;;;;16.23;81.01;98678.30;3804506;77;44015;-23
2021/06/03 01:15:18;;;;;;;6.12;5.33;;;;;;;16.23;81.30;98670.98;3811487;77;42960;-23
2021/06/03 01:20:25;;;;;;;5.75;5.15;;;;;;;16.15;82.63;98672.46;3819961;77;43694;-23
2021/06/03 01:25:32;;;;;;;5.87;5.10;;;;;;;16.07;82.26;98687.00;3811817;77;44050;-23
2021/06/03 01:30:41;;;;;;;6.70;4.97;;;;;;;16.05;82.56;98689.59;3818897;77;44000;-25
2021/06/03 01:35:50;;;;;;;9.43;5.58;;;;;;;16.05;81.95;98694.49;3815796;77;43614;-24
2021/06/03 01:40:58;;;;;;;6.42;5.00;;;;;;;16.07;81.44;98690.22;3808627;77;43618;-24
2021/06/03 01:46:05;;;;;;;7.75;5.17;;;;;;;16.02;81.66;98691.65;3813465;76;44057;-25
2021/06/03 01:51:14;;;;;;;5.97;4.87;;;;;;;15.98;80.90;98684.07;3815012;77;44105;-24
2021/06/03 01:56:21;;;;;;;6.92;5.10;;;;;;;15.98;80.61;98691.69;3816876;77;44053;-24
2021/06/03 02:01:27;;;;;;;5.78;4.50;;;;;;;15.94;80.98;98687.66;3812348;77;43982;-25
2021/06/03 02:06:33;;;;;;;5.45;4.55;;;;;;;15.96;80.85;98692.39;3810093;77;44009;-24
2021/06/03 02:11:42;;;;;;;7.08;4.53;;;;;;;15.97;80.01;98687.81;3810582;77;26355;-24
2021/06/03 02:16:52;;;;;;;5.58;4.47;;;;;;;15.96;79.60;98690.20;3808673;77;44051;-26
2021/06/03 02:21:59;;;;;;;6.45;4.53;;;;;;;15.94;79.22;98689.55;3812710;77;43005;-25
2021/06/03 02:27:08;;;;;;;5.12;4.22;;;;;;;15.92;78.76;98692.47;3820776;77;26764;-24
2021/06/03 02:32:15;;;;;;;5.83;4.40;;;;;;;15.90;78.78;98688.23;3816362;77;44027;-24
2021/06/03 02:37:23;;;;;;;5.83;4.37;;;;;;;15.86;78.72;98690.48;3808834;77;26416;-24
2021/06/03 02:42:31;;;;;;;5.53;4.40;;;;;;;15.88;77.66;98697.11;3813626;77;26408;-24
2021/06/03 02:47:38;;;;;;;6.45;3.83;;;;;;;15.85;77.95;98690.16;3803646;77;43460;-24
2021/06/03 02:52:46;;;;;;;4.65;4.25;;;;;;;15.82;77.83;98697.28;3812685;77;44391;-25
2021/06/03 02:57:55;;;;;;;5.08;4.20;;;;;;;15.83;77.37;98700.33;3795415;77;44044;-25
2021/06/03 03:03:06;;;;;;;4.60;4.20;;;;;;;15.78;77.56;98698.72;3808873;76;43487;-23
2021/06/03 03:08:14;;;;;;;6.97;4.33;;;;;;;15.71;78.85;98708.95;3814589;77;43508;-23
2021/06/03 03:13:21;;;;;;;4.37;3.98;;;;;;;15.62;79.47;98714.69;3794350;76;452447;-23
2021/06/03 03:18:28;;;;;;;7.25;4.35;;;;;;;15.55;79.97;98711.34;3788740;77;43361;-24
2021/06/03 03:23:34;;;;;;;5.83;4.10;;;;;;;15.56;79.96;98718.99;3808649;76;44012;-23
2021/06/03 03:28:41;;;;;;;5.50;4.20;;;;;;;15.52;80.10;98726.64;3797834;77;44079;-23
2021/06/03 03:33:48;;;;;;;4.70;4.20;;;;;;;15.44;80.31;98728.63;3804941;76;43689;-23
2021/06/03 03:38:54;;;;;;;4.97;4.47;;;;;;;15.33;81.57;98723.98;3808463;77;43403;-24
2021/06/03 03:44:01;;;;;;;4.90;4.33;;;;;;;15.29;81.64;98736.22;3791813;76;43689;-23
2021/06/03 03:49:07;;;;;;;4.97;4.00;;;;;;;15.30;81.48;98731.13;3814737;77;43693;-23
2021/06/03 03:54:13;;;;;;;5.05;4.28;;;;;;;15.32;80.68;98734.50;3805451;76;43397;-23
2021/06/03 03:59:20;;;;;;;4.72;4.12;;;;;;;15.42;80.90;98730.15;3813563;77;43297;-23
2021/06/03 04:04:26;;;;;;;7.08;4.28;;;;;;;15.38;80.97;98742.42;3816582;77;43330;-23
2021/06/03 04:09:33;;;;;;;4.60;4.20;;;;;;;15.33;81.04;98744.34;3811673;77;44030;-23
2021/06/03 04:14:41;;;;;;;6.60;4.10;;;;;;;15.31;81.01;98746.39;3809404;77;42800;-23
2021/06/03 04:19:48;;;;;;;6.95;3.87;;;;;;;15.34;80.69;98743.31;3814335;76;43205;-23
2021/06/03 04:24:54;;;;;;;5.10;3.90;;;;;;;15.39;80.30;98746.83;3820208;77;43682;-23
2021/06/03 04:30:00;;;;;;;6.28;3.95;;;;;;;15.49;79.66;98757.41;3808247;77;43419;-23
2021/06/03 04:35:09;;;;;;;5.20;4.10;;;;;;;15.60;79.67;98759.66;3822263;77;44113;-23
2021/06/03 04:40:17;;;;;;;4.92;4.03;;;;;;;15.69;78.80;98770.80;3807638;77;43980;-23
2021/06/03 04:45:23;;;;;;;5.20;3.77;;;;;;;15.81;79.17;98773.05;3806450;77;44019;-23
2021/06/03 04:50:31;;;;;;;4.40;4.00;;;;;;;15.90;79.52;98771.95;3800733;77;43373;-23
2021/06/03 04:55:38;;;;;;;8.90;4.00;;;;;;;16.00;79.72;98774.37;3804227;77;42959;-23
2021/06/03 05:00:45;;;;;;;3.77;3.42;;;;;;;16.13;76.81;98779.16;3813893;77;44015;-23
2021/06/03 05:05:51;;;;;;;4.80;3.65;;;;;;;16.29;74.18;98777.58;3825672;77;43524;-23
2021/06/03 05:10:57;;;;;;;5.47;3.27;;;;;;;16.48;73.95;98782.12;3830190;77;44233;-23
2021/06/03 05:16:03;;;;;;;4.28;3.30;;;;;;;16.58;72.56;98784.02;3816397;77;44076;-23
2021/06/03 05:21:09;;;;;;;8.38;3.42;;;;;;;16.73;70.93;98789.94;3707586;77;93692;-23
2021/06/03 05:26:16;;;;;;;7.72;3.83;;;;;;;16.89;69.57;98784.77;3688915;79;43669;-23
2021/06/03 05:31:23;;;;;;;4.33;2.95;;;;;;;17.05;69.14;98791.86;3695378;79;44181;-24
2021/06/03 05:36:29;;;;;;;5.30;3.15;;;;;;;17.17;68.35;98793.03;3701181;78;43513;-23
2021/06/03 05:41:37;;;;;;;3.87;3.00;;;;;;;17.26;68.66;98799.20;3684961;79;42884;-23
2021/06/03 05:46:44;;;;;;;5.90;3.52;;;;;;;17.41;67.99;98799.11;3702509;79;44172;-23
2021/06/03 05:51:50;;;;;;;5.45;3.12;;;;;;;17.55;66.80;98799.55;3682650;79;43443;-23
2021/06/03 05:56:56;;;;;;;3.47;3.17;;;;;;;17.71;66.77;98801.64;3641923;80;44150;-23
2021/06/03 06:02:04;;;;;;;7.12;3.47;;;;;;;17.84;65.93;98810.45;3634128;80;43486;-24
2021/06/03 06:07:09;;;;;;;3.80;3.45;;;;;;;17.94;67.10;98805.98;3589133;82;43685;-24
2021/06/03 06:12:16;;;;;;;8.43;3.27;;;;;;;18.03;68.14;98817.11;3628162;80;43355;-24
2021/06/03 06:17:22;;;;;;;4.72;3.55;;;;;;;18.16;66.34;98812.25;3632341;80;43021;-24
2021/06/03 06:22:29;;;;;;;4.08;3.60;;;;;;;18.33;64.94;98819.07;3626917;80;44760;-24
2021/06/03 06:27:35;;;;;;;4.90;3.60;;;;;;;18.51;65.27;98820.39;3632085;81;44735;-24
2021/06/03 06:32:41;;;;;;;5.33;3.20;;;;;;;18.68;64.37;98819.52;3627825;80;43694;-24
2021/06/03 06:37:46;;;;;;;4.20;3.70;;;;;;;18.86;63.11;98820.31;3629831;81;44041;-24
2021/06/03 06:42:54;;;;;;;4.22;3.30;;;;;;;19.04;64.06;98832.05;3630787;80;44132;-24
2021/06/03 06:48:00;;;;;;;6.33;3.22;;;;;;;19.28;61.95;98832.52;3658753;80;43420;-24
2021/06/03 06:53:10;;;;;;;5.50;3.98;;;;;;;19.56;61.44;98839.16;3598168;82;43816;-24
2021/06/03 06:58:16;;;;;;;6.33;3.12;;;;;;;19.84;60.31;98839.48;3625436;81;43413;-24
2021/06/03 07:03:22;;;;;;;4.62;3.42;;;;;;;20.07;62.15;98836.00;3650910;80;44237;-24
2021/06/03 07:08:28;;;;;;;4.92;3.55;;;;;;;20.27;61.11;98836.82;3649763;80;43576;-24
2021/06/03 07:13:33;;;;;;;5.60;3.75;;;;;;;20.61;60.41;98840.29;3622562;80;44590;-24
2021/06/03 07:18:39;;;;;;;4.08;3.00;;;;;;;20.87;56.56;98839.90;3650310;80;44678;-24
2021/06/03 07:23:45;;;;;;;6.35;3.00;;;;;;;21.08;58.76;98843.36;3646547;80;44114;-24
2021/06/03 07:28:52;;;;;;;3.72;3.17;;;;;;;21.32;57.15;98845.84;3615593;80;44610;-24
2021/06/03 07:33:57;;;;;;;5.40;3.50;;;;;;;21.42;56.02;98838.50;3628316;80;43443;-24
2021/06/03 07:39:07;;;;;;;3.80;3.08;;;;;;;21.68;55.47;98840.77;3632084;80;43411;-24
2021/06/03 07:44:12;;;;;;;3.45;3.15;;;;;;;21.93;54.54;98840.75;3607306;80;42947;-24
2021/06/03 07:49:18;;;;;;;4.80;2.92;;;;;;;22.12;55.00;98841.63;3635202;80;43332;-24
2021/06/03 07:54:24;;;;;;;3.65;2.80;;;;;;;22.39;52.42;98843.24;3596225;81;44086;-24
2021/06/03 07:59:30;;;;;;;7.67;3.00;;;;;;;22.51;49.71;98845.56;3644713;79;43682;-23
2021/06/03 08:04:36;;;;;;;2.98;2.70;;;;;;;22.64;49.35;98845.92;3654083;79;44721;-23
2021/06/03 08:09:45;;;;;;;5.33;3.20;;;;;;;22.75;51.04;98841.06;3656205;79;42880;-24
2021/06/03 08:14:50;;;;;;;4.00;2.60;;;;;;;22.90;48.77;98858.52;3563266;81;43314;-24
2021/06/03 08:19:56;;;;;;;3.35;3.05;;;;;;;23.02;48.49;98854.43;3653088;79;43291;-24
2021/06/03 08:25:01;;;;;;;3.85;2.85;;;;;;;23.17;48.83;98855.38;3658614;79;44062;-24
2021/06/03 08:30:12;;;;;;;2.60;2.40;;;;;;;23.29;48.88;98849.97;3656965;78;43686;-24
2021/06/03 08:35:20;;;;;;;4.60;2.98;;;;;;;23.46;47.71;98853.44;3645371;79;43677;-24
2021/06/03 08:40:29;;;;;;;3.75;2.52;;;;;;;23.62;47.24;98851.37;3557103;82;44019;-24
2021/06/03 08:45:37;;;;;;;5.42;2.67;;;;;;;23.76;47.29;98849.23;3646288;79;44015;-23
2021/06/03 08:50:45;;;;;;;3.62;2.70;;;;;;;24.06;44.57;98846.11;3657650;79;44031;-23
2021/06/03 09:01:16;;;;;;;2.90;2.70;;;;;;;24.55;44.89;98839.77;3645025;79;43999;-23
2021/06/03 09:06:22;;;;;;;3.87;2.50;;;;;;;24.45;44.70;98843.16;3656172;79;44720;-23
2021/06/03 09:11:30;;;;;;;4.00;2.70;;;;;;;24.72;45.56;98839.06;3561246;81;44082;-23
2021/06/03 09:16:39;;;;;;;2.62;2.42;;;;;;;24.91;46.04;98838.34;3648946;79;44038;-22
2021/06/03 09:21:47;;;;;;;3.87;2.50;;;;;;;25.07;43.54;98837.55;3658579;79;43688;-22
2021/06/03 09:26:55;;;;;;;3.02;2.50;;;;;;;25.05;43.27;98830.61;3555961;82;44026;-22
2021/06/03 09:32:06;;;;;;;4.28;2.60;;;;;;;25.31;43.42;98839.36;3648049;79;43403;-24
2021/06/03 09:37:12;;;;;;;3.30;2.87;;;;;;;25.49;43.02;98839.72;3650109;79;44006;-23
2021/06/03 09:42:21;;;;;;;4.00;2.60;;;;;;;25.71;41.86;98835.66;3655492;79;43485;-23
2021/06/03 09:47:30;;;;;;;3.47;2.67;;;;;;;25.95;42.53;98831.34;3556408;82;44163;-23
2021/06/03 09:52:38;;;;;;;2.92;2.40;;;;;;;26.19;42.55;98832.02;3654519;79;44134;-23
2021/06/03 09:57:45;;;;;;;2.50;2.30;;;;;;;26.06;40.29;98831.78;3635123;79;43412;-23
2021/06/03 10:02:55;;;;;;;3.00;2.47;;;;;;;26.27;40.96;98821.91;3630089;80;43266;-23
2021/06/03 10:08:05;;;;;;;2.98;2.40;;;;;;;26.38;38.41;98826.19;3535320;82;44139;-23
2021/06/03 10:13:12;;;;;;;3.35;2.25;;;;;;;26.56;38.58;98815.38;3540089;82;43259;-23
2021/06/03 10:18:21;;;;;;;4.28;2.60;;;;;;;27.01;39.85;98820.36;3533616;82;44154;-24
2021/06/03 10:23:28;;;;;;;2.75;2.15;;;;;;;27.01;39.85;98820.36;3626796;80;44109;-24
2021/06/03 10:28:35;;;;;;;4.05;2.40;;;;;;;27.17;38.55;98814.45;3637795;80;43982;-24
2021/06/03 10:33:41;;;;;;;2.40;2.20;;;;;;;26.89;37.67;98821.88;3535964;82;43717;-24
2021/06/03 10:38:48;;;;;;;3.80;2.20;;;;;;;27.01;37.46;98821.19;3620514;81;43339;-24
2021/06/03 10:43:54;;;;;;;6.65;2.60;;;;;;;27.57;38.25;98819.27;3536004;82;44577;-24
2021/06/03 10:49:00;;;;;;;4.17;2.35;;;;;;;27.73;36.87;98812.77;3538849;82;43992;-24
2021/06/03 10:54:06;;;;;;;13.00;2.65;;;;;;;27.64;36.16;98797.73;3535471;82;44465;-24
2021/06/03 10:59:31;;;;;;;3.75;2.30;;;;;;;27.64;36.16;98797.73;3662057;79;44717;-24
2021/06/03 11:04:38;;;;;;;2.95;2.55;;;;;;;27.94;35.63;98806.81;3668918;79;43336;-24
2021/06/03 11:09:46;;;;;;;3.33;2.25;;;;;;;28.06;36.13;98809.40;3581832;82;43686;-24
2021/06/03 11:15:09;;;;;;;4.83;2.37;;;;;;;28.20;36.77;98807.02;3575840;81;44486;-24
2021/06/03 11:20:15;;;;;;;3.08;2.60;;;;;;;28.39;36.39;98810.16;3596255;81;44014;-24
2021/06/03 11:25:38;;;;;;;3.65;2.15;;;;;;;28.09;36.15;98810.82;3600195;81;43392;-23
2021/06/03 11:30:44;;;;;;;3.83;2.08;;;;;;;28.09;36.15;98810.82;3581146;81;43692;-23
2021/06/03 11:35:50;;;;;;;3.80;2.47;;;;;;;27.93;35.56;98809.86;3574419;81;43432;-23
2021/06/03 11:40:57;;;;;;;2.20;2.00;;;;;;;28.35;36.56;98807.64;3601866;81;43401;-23
2021/06/03 11:46:02;;;;;;;2.75;2.22;;;;;;;28.49;36.84;98801.61;3576120;81;44476;-22
2021/06/03 11:51:10;;;;;;;4.95;2.22;;;;;;;28.64;32.08;98803.07;3600112;81;43686;-23
2021/06/03 11:56:19;;;;;;;2.85;2.20;;;;;;;28.71;33.49;98793.11;3602573;81;44468;-24
2021/06/03 12:01:38;;;;;;;4.40;2.52;;;;;;;28.96;34.37;98791.56;3576517;81;43374;-24
2021/06/03 12:06:48;;;;;;;3.33;2.30;;;;;;;28.99;34.00;98778.53;3577441;81;44080;-24
2021/06/03 12:11:57;;;;;;;2.62;2.20;;;;;;;29.24;34.05;98783.81;3604017;81;43787;-24
2021/06/03 12:17:05;;;;;;;3.85;2.20;;;;;;;28.79;31.08;98777.93;3602065;81;42878;-24
2021/06/03 12:22:12;;;;;;;2.45;2.22;;;;;;;29.27;33.11;98779.97;3606656;81;43087;-23
2021/06/03 12:27:24;;;;;;;2.95;1.90;;;;;;;29.42;31.81;98776.39;3575681;82;43364;-23
2021/06/03 12:32:30;;;;;;;2.40;2.20;;;;;;;29.49;32.51;98771.38;3555237;82;43415;-24
2021/06/03 12:37:37;;;;;;;3.35;2.10;;;;;;;29.78;32.58;98760.25;3550101;83;43727;-24
2021/06/03 12:42:43;;;;;;;3.52;2.30;;;;;;;30.21;32.23;98757.13;3570278;82;44564;-24
2021/06/03 12:47:52;;;;;;;2.40;2.20;;;;;;;30.56;29.86;98747.85;3565573;82;44612;-23
2021/06/03 12:52:58;;;;;;;2.20;2.00;;;;;;;30.56;29.86;98747.85;3575399;81;43000;-23
2021/06/03 12:58:10;;;;;;;2.35;2.00;;;;;;;31.03;31.37;98741.44;3578970;81;43282;-23
2021/06/03 13:03:18;;;;;;;2.37;2.17;;;;;;;31.19;30.54;98735.80;3663384;79;42920;-24
2021/06/03 13:08:24;;;;;;;3.62;1.80;;;;;;;31.19;30.54;98735.80;3658667;79;44055;-24
2021/06/03 13:13:30;;;;;;;2.35;2.05;;;;;;;31.32;29.45;98742.10;3567445;81;43802;-23
2021/06/03 13:18:36;;;;;;;2.70;2.10;;;;;;;31.40;29.23;98736.45;3588761;81;43313;-24
2021/06/03 13:23:42;;;;;;;2.25;2.00;;;;;;;31.81;28.83;98736.10;3651086;79;44016;-23
2021/06/03 13:28:48;;;;;;;2.50;1.90;;;;;;;31.13;28.16;98727.20;3655779;79;44173;-24
2021/06/03 13:33:54;;;;;;;2.30;2.00;;;;;;;31.16;28.24;98724.70;3561737;81;42834;-23
2021/06/03 13:38:59;;;;;;;2.20;2.00;;;;;;;30.99;28.29;98720.05;3647694;79;42903;-24
2021/06/03 13:44:08;;;;;;;2.80;2.12;;;;;;;31.35;29.02;98722.02;3556049;81;43722;-24
2021/06/03 13:49:26;;;;;;;4.15;1.92;;;;;;;31.47;29.22;98717.47;3654652;79;44446;-24
2021/06/03 13:54:35;;;;;;;2.42;1.77;;;;;;;31.90;28.37;98723.76;3658226;79;43470;-24
2021/06/03 13:59:40;;;;;;;2.15;1.92;;;;;;;32.16;27.22;98719.29;3541450;82;44068;-24
2021/06/03 14:04:46;;;;;;;2.75;1.82;;;;;;;32.53;27.33;98719.10;3665597;79;44133;-24
2021/06/03 14:10:06;;;;;;;2.17;1.70;;;;;;;33.09;28.53;98715.81;3549101;81;42708;-24
2021/06/03 14:15:15;;;;;;;2.83;1.80;;;;;;;32.93;28.30;98716.62;3676506;79;44643;-24
2021/06/03 14:20:23;;;;;;;1.95;1.70;;;;;;;32.19;29.24;98713.09;3677330;79;43319;-24
2021/06/03 14:25:39;;;;;;;5.83;1.77;;;;;;;32.83;28.53;98714.26;3551240;81;43747;-24
2021/06/03 14:30:54;;;;;;;1.87;1.77;;;;;;;33.45;25.90;98709.66;3653603;79;43709;-24
2021/06/03 14:36:02;;;;;;;1.98;1.80;;;;;;;33.36;25.81;98702.55;3651996;79;44039;-22
2021/06/03 14:41:07;;;;;;;2.70;2.05;;;;;;;33.67;26.48;98699.77;3665267;79;43681;-23
2021/06/03 14:46:13;;;;;;;2.83;1.77;;;;;;;33.58;26.94;98709.42;3656964;79;43719;-23
2021/06/03 14:51:22;;;;;;;2.65;1.85;;;;;;;33.25;26.64;98709.41;3657258;79;43286;-23
2021/06/03 14:56:28;;;;;;;3.65;2.40;;;;;;;33.53;25.17;98704.76;3566905;82;44745;-23
2021/06/03 15:01:33;;;;;;;3.27;2.50;;;;;;;32.71;29.04;98702.11;3660674;79;43717;-23
2021/06/03 15:06:42;;;;;;;2.55;2.30;;;;;;;32.36;30.69;98695.91;3670417;79;43619;-23
2021/06/03 15:11:48;;;;;;;10.00;2.47;;;;;;;32.24;31.17;98686.59;3676665;79;44039;-23
2021/06/03 15:16:54;;;;;;;3.83;2.05;;;;;;;30.17;33.13;98685.16;3667974;79;44062;-23
2021/06/03 15:22:01;;;;;;;4.80;2.20;;;;;;;29.50;33.25;98687.00;3676940;79;44054;-22
2021/06/03 15:27:09;;;;;;;3.60;2.08;;;;;;;31.24;31.83;98682.86;3670542;79;43886;-23
2021/06/03 15:32:15;;;;;;;3.00;2.02;;;;;;;32.00;31.40;98676.00;3663546;79;43983;-23
2021/06/03 15:37:24;;;;;;;3.65;2.33;;;;;;;31.95;31.25;98673.53;3676429;79;43811;-23
2021/06/03 15:42:32;;;;;;;3.22;2.30;;;;;;;32.55;30.23;98673.62;3681106;79;44018;-23
2021/06/03 15:47:40;;;;;;;3.17;2.10;;;;;;;32.86;29.74;98667.63;3578748;81;44005;-23
2021/06/03 15:52:47;;;;;;;2.33;2.12;;;;;;;32.96;29.90;98667.19;3547659;83;44128;-23
2021/06/03 15:57:54;;;;;;;2.95;2.22;;;;;;;32.09;30.67;98673.66;3540792;83;44021;-23
2021/06/03 16:03:02;;;;;;;3.42;2.30;;;;;;;31.36;31.67;98670.78;3535140;82;44448;-24
2021/06/03 16:08:08;;;;;;;2.98;2.08;;;;;;;30.88;32.53;98669.20;3670017;79;43724;-24
2021/06/03 16:13:16;;;;;;;3.72;2.10;;;;;;;30.99;32.98;98669.39;3678877;79;44047;-23
2021/06/03 16:18:23;;;;;;;3.10;2.30;;;;;;;29.84;33.69;98664.72;3661223;79;43723;-23
2021/06/03 16:23:29;;;;;;;2.90;2.25;;;;;;;29.54;33.63;98666.45;3663730;79;44038;-23
2021/06/03 16:28:35;;;;;;;3.22;2.10;;;;;;;28.95;33.96;98668.68;3661879;79;43712;-23
2021/06/03 16:33:41;;;;;;;3.10;2.27;;;;;;;29.08;34.34;98664.54;3655899;79;44225;-24
2021/06/03 16:38:47;;;;;;;5.03;2.55;;;;;;;29.08;34.34;98664.54;3569564;82;43445;-24
2021/06/03 16:43:56;;;;;;;2.75;2.33;;;;;;;28.49;35.61;98661.13;3657009;79;43767;-24
2021/06/03 16:49:03;;;;;;;2.55;2.30;;;;;;;28.26;36.54;98670.73;3567968;81;44039;-23
2021/06/03 16:54:09;;;;;;;2.85;2.15;;;;;;;28.30;36.63;98666.33;3659880;79;43198;-24
2021/06/03 16:59:15;;;;;;;2.98;2.70;;;;;;;28.25;36.74;98669.92;3573819;82;43666;-23
2021/06/03 17:04:22;;;;;;;2.60;2.40;;;;;;;27.94;37.23;98665.59;3666186;79;43302;-24
2021/06/03 17:09:28;;;;;;;2.83;2.60;;;;;;;27.47;37.24;98670.05;3668187;79;43160;-23
2021/06/03 17:14:34;;;;;;;4.62;2.35;;;;;;;27.11;38.00;98664.78;3667583;79;43315;-23
2021/06/03 17:19:40;;;;;;;6.03;2.42;;;;;;;27.04;37.99;98667.20;3564152;82;43294;-23
2021/06/03 17:24:46;;;;;;;3.10;2.55;;;;;;;27.07;38.13;98668.60;3651245;79;44137;-23
2021/06/03 17:29:52;;;;;;;3.95;2.55;;;;;;;27.07;38.13;98668.60;3557204;82;44024;-24
2021/06/03 17:35:00;;;;;;;3.75;2.58;;;;;;;26.77;38.33;98661.69;3663124;79;44472;-24
2021/06/03 17:40:09;;;;;;;4.05;2.35;;;;;;;26.51;38.92;98664.75;3566731;82;44129;-24
2021/06/03 17:45:17;;;;;;;2.92;2.47;;;;;;;26.25;39.96;98668.05;3661970;79;44038;-24
2021/06/03 17:50:30;;;;;;;4.15;2.77;;;;;;;25.93;40.43;98667.36;3648576;79;26363;-24
2021/06/03 17:55:37;;;;;;;7.12;2.75;;;;;;;25.87;41.17;98677.20;3672506;79;44031;-24
2021/06/03 18:00:44;;;;;;;4.15;2.90;;;;;;;25.87;41.17;98677.20;3664885;79;44390;-24
2021/06/03 18:05:51;;;;;;;3.92;2.50;;;;;;;25.67;41.65;98681.37;3600985;81;42898;-23
2021/06/03 18:10:57;;;;;;;2.90;2.70;;;;;;;25.24;42.74;98688.68;3674927;79;44091;-23
2021/06/03 18:16:05;;;;;;;3.00;2.33;;;;;;;25.09;43.52;98685.69;3675078;79;43301;-23
2021/06/03 18:21:11;;;;;;;6.55;2.80;;;;;;;25.02;43.75;98682.25;3686257;79;43639;-23
2021/06/03 18:26:17;;;;;;;6.55;3.00;;;;;;;24.92;44.52;98687.88;3588479;81;43996;-23
2021/06/03 18:31:24;;;;;;;3.25;2.95;;;;;;;24.42;46.24;98685.30;3604700;81;44075;-23
2021/06/03 18:36:31;;;;;;;3.55;3.10;;;;;;;24.12;46.88;98677.26;3588950;81;43674;-23
2021/06/03 18:41:37;;;;;;;4.80;2.70;;;;;;;23.86;47.66;98683.56;3603981;81;44672;-23
2021/06/03 18:46:43;;;;;;;4.85;3.30;;;;;;;23.58;49.01;98681.02;3586931;81;44436;-24
2021/06/03 18:51:49;;;;;;;5.60;3.45;;;;;;;23.39;49.09;98681.15;3675235;79;44078;-22
2021/06/03 18:56:55;;;;;;;3.37;3.08;;;;;;;23.22;49.86;98682.95;3676038;79;44015;-22
2021/06/03 19:02:01;;;;;;;5.33;2.98;;;;;;;23.01;50.88;98678.27;3593980;81;44043;-23
2021/06/03 19:07:08;;;;;;;5.35;3.20;;;;;;;22.83;52.36;98674.24;3572268;82;44088;-24
2021/06/03 19:12:15;;;;;;;4.30;3.27;;;;;;;22.71;52.33;98686.03;3610309;80;43224;-23
2021/06/03 19:17:21;;;;;;;3.20;2.83;;;;;;;22.65;52.36;98686.13;3631450;80;43369;-24
2021/06/03 19:22:28;;;;;;;4.28;3.27;;;;;;;22.41;53.89;98684.67;3632598;80;44033;-25
2021/06/03 19:27:39;;;;;;;5.95;3.62;;;;;;;22.23;53.82;98689.08;3609033;80;44535;-22
2021/06/03 19:32:46;;;;;;;5.40;3.22;;;;;;;22.11;54.79;98694.52;3620281;80;44069;-23
2021/06/03 19:37:54;;;;;;;5.72;3.60;;;;;;;21.94;55.59;98697.56;3633242;80;44014;-22
2021/06/03 19:43:01;;;;;;;5.05;3.37;;;;;;;21.90;54.95;98694.45;3635427;80;44014;-23
2021/06/03 19:48:07;;;;;;;3.80;3.40;;;;;;;21.72;55.91;98693.91;3573358;82;44031;-22
2021/06/03 19:53:16;;;;;;;4.12;3.47;;;;;;;21.63;56.12;98697.50;3575995;82;43199;-22
2021/06/03 19:58:25;;;;;;;5.42;3.83;;;;;;;21.53;56.27;98699.86;3572793;82;44035;-22
2021/06/03 20:03:31;;;;;;;3.70;3.40;;;;;;;21.43;57.27;98700.91;3568281;82;43719;-21
2021/06/03 20:08:38;;;;;;;3.75;3.42;;;;;;;21.27;57.87;98702.33;3576384;82;43669;-22
2021/06/03 20:13:44;;;;;;;6.08;3.87;;;;;;;21.13;58.44;98701.06;3669919;79;43304;-22
2021/06/03 20:18:51;;;;;;;5.53;3.58;;;;;;;21.12;58.12;98704.04;3663081;79;43501;-21
2021/06/03 20:23:58;;;;;;;4.60;3.77;;;;;;;21.00;59.38;98698.42;3592995;81;44093;-23
2021/06/03 20:29:04;;;;;;;6.15;3.62;;;;;;;20.93;58.95;98696.59;3656836;79;43728;-23
2021/06/03 20:34:11;;;;;;;4.55;3.80;;;;;;;20.91;59.18;98698.71;3658682;79;43700;-23
2021/06/03 20:39:17;;;;;;;5.25;3.77;;;;;;;20.75;60.22;98697.89;3661552;79;44013;-23
2021/06/03 20:44:23;;;;;;;4.87;4.05;;;;;;;20.64;60.84;98696.66;3665498;79;43321;-25
2021/06/03 20:49:29;;;;;;;4.97;4.00;;;;;;;20.48;62.42;98695.28;3639271;79;44395;-23
2021/06/03 20:54:37;;;;;;;7.47;4.28;;;;;;;20.39;62.67;98705.64;3648866;79;44474;-24
2021/06/03 20:59:43;;;;;;;5.25;4.45;;;;;;;20.28;63.16;98703.58;3562702;82;44686;-23
2021/06/03 21:04:48;;;;;;;4.20;3.75;;;;;;;20.23;62.71;98712.45;3649080;79;44039;-22
2021/06/03 21:09:54;;;;;;;4.53;3.83;;;;;;;20.11;63.36;98712.27;3656962;79;44268;-22
2021/06/03 21:15:00;;;;;;;4.78;4.20;;;;;;;20.03;65.08;98711.16;3567144;81;44019;-22
2021/06/03 21:20:09;;;;;;;5.28;4.35;;;;;;;19.94;64.21;98711.91;3654450;79;44014;-22
2021/06/03 21:25:19;;;;;;;4.55;4.15;;;;;;;19.91;64.47;98721.94;3562986;81;43685;-24
2021/06/03 21:30:30;;;;;;;6.47;4.37;;;;;;;19.88;65.20;98719.63;3653933;79;42947;-23
2021/06/03 21:35:39;;;;;;;4.78;3.95;;;;;;;19.87;64.07;98720.67;3559001;81;26447;-23
2021/06/03 21:40:47;;;;;;;5.12;4.10;;;;;;;19.86;64.02;98727.19;3640075;79;43313;-23
2021/06/03 21:45:54;;;;;;;4.78;3.90;;;;;;;19.90;62.94;98723.50;3651194;79;43379;-23
2021/06/03 21:51:02;;;;;;;5.00;3.87;;;;;;;19.94;63.31;98711.09;3545969;82;44061;-23
2021/06/03 21:56:10;;;;;;;4.90;3.77;;;;;;;19.92;63.26;98723.62;3661114;79;26894;-21
2021/06/03 22:01:19;;;;;;;4.85;4.30;;;;;;;19.91;63.15;98717.83;3660040;79;26463;-21
2021/06/03 22:06:25;;;;;;;4.67;4.28;;;;;;;19.93;62.58;98720.34;3650793;79;44072;-22
2021/06/03 22:11:31;;;;;;;5.33;4.20;;;;;;;19.93;62.87;98722.56;3548216;81;43111;-23
2021/06/03 22:16:37;;;;;;;4.10;3.70;;;;;;;19.94;63.04;98719.28;3663559;79;44049;-21
2021/06/03 22:21:44;;;;;;;4.30;3.70;;;;;;;19.94;62.56;98724.22;3687766;79;43726;-21
2021/06/03 22:26:50;;;;;;;5.40;4.20;;;;;;;19.94;62.44;98726.95;3648798;79;43273;-22
2021/06/03 22:31:56;;;;;;;5.85;4.00;;;;;;;20.03;60.81;98724.83;3575050;81;43204;-22
2021/06/03 22:37:03;;;;;;;4.10;3.58;;;;;;;20.10;60.28;98727.55;3645848;79;44102;-22
2021/06/03 22:42:12;;;;;;;5.33;3.83;;;;;;;20.15;59.68;98728.57;3636918;79;44007;-23
2021/06/03 22:47:18;;;;;;;4.53;4.12;;;;;;;20.19;59.36;98735.81;3645926;79;43188;-22
2021/06/03 22:52:25;;;;;;;4.28;3.87;;;;;;;20.17;59.40;98725.61;3565811;81;44018;-23
2021/06/03 22:57:31;;;;;;;4.33;3.92;;;;;;;20.15;59.05;98720.91;3663761;79;44596;-24
2021/06/03 23:02:37;;;;;;;5.45;4.03;;;;;;;20.13;59.27;98721.65;3562805;81;43722;-24
2021/06/03 23:07:43;;;;;;;6.17;3.72;;;;;;;20.12;59.32;98724.06;3658544;79;43384;-24
2021/06/03 23:12:49;;;;;;;4.03;3.62;;;;;;;20.12;59.51;98721.33;3654491;79;43689;-24
2021/06/03 23:17:55;;;;;;;6.37;4.20;;;;;;;20.18;59.05;98717.72;3654212;79;44596;-22
2021/06/03 23:23:02;;;;;;;4.25;3.55;;;;;;;20.17;58.58;98721.50;3658762;79;44050;-23
2021/06/03 23:28:07;;;;;;;6.42;3.90;;;;;;;20.15;58.69;98727.75;3556914;81;44574;-22
2021/06/03 23:33:13;;;;;;;4.42;3.90;;;;;;;20.08;58.75;98722.81;3656983;79;43458;-22
2021/06/03 23:38:19;;;;;;;4.45;3.83;;;;;;;20.09;58.14;98713.05;3653139;79;43458;-22
2021/06/03 23:43:26;;;;;;;4.40;3.67;;;;;;;20.17;57.06;98711.42;3649773;79;44078;-22
2021/06/03 23:48:32;;;;;;;7.10;3.72;;;;;;;20.26;56.51;98707.06;3645470;79;43427;-23
2021/06/03 23:53:38;;;;;;;4.20;3.80;;;;;;;20.25;55.94;98713.59;3657581;79;43708;-22
2021/06/03 23:58:41;;;;;;;4.03;3.70;;;;;;;20.30;55.47;98700.11;3552641;82;44084;-23
